This is the latest recevied weather packets stored in our database for station/object OH6DL-15. If no packets are shown the sender has not sent any weather packets the latest 10 day(s).
| Time | Temp. | Humidity | Pressure | Rain* | Wind** | Luminosity | Snow |
|---|---|---|---|---|---|---|---|
| 1777728423 | 18.33° C | 37% | 1004.5 hPa | 0 mm | - | - | - |
| 1777714563 | 17.78° C | 44% | 1005.1 hPa | 0 mm | - | - | - |
| 1777713483 | 17.78° C | 48% | 1005.4 hPa | 0 mm | - | - | - |
| 1777712404 | 17.22° C | 49% | 1005.7 hPa | 0 mm | - | - | - |
| 1777705744 | 13.33° C | 64% | 1006.2 hPa | 0 mm | - | - | - |
| 1777699624 | 11.67° C | 65% | 1007 hPa | 0 mm | - | - | - |
| 1777698003 | 10° C | 70% | 1007.4 hPa | 0 mm | - | - | - |
| 1777697643 | 10° C | 72% | 1007.5 hPa | 0 mm | - | - | - |
| 1777696563 | 6.11° C | 85% | 1007.6 hPa | 0 mm | - | - | - |
| 1777690443 | 2.78° C | 94% | 1008.8 hPa | 0 mm | - | - | - |
| 1777687203 | 2.78° C | 96% | 1009.9 hPa | 0 mm | - | - | - |
| 1777679643 | 3.89° C | 92% | 1011.1 hPa | 0 mm | - | - | - |
| 1777677483 | 5° C | 85% | 1011.2 hPa | 0 mm | - | - | - |
| 1777674425 | 5.56° C | 88% | 1011.4 hPa | 0 mm | - | - | - |
| 1777673884 | 5.56° C | 85% | 1011.7 hPa | 0 mm | - | - | - |
| 1777672804 | 5.56° C | 82% | 1011.7 hPa | 0 mm | - | - | - |
| 1777672444 | 6.11° C | 82% | 1011.8 hPa | 0 mm | - | - | - |
| 1777672033 | 6.11° C | 82% | 1012 hPa | 0 mm | - | - | - |
| 1777662544 | 11.67° C | 60% | 1012.9 hPa | 0 mm | - | - | - |
| 1777661103 | 13.33° C | 56% | 1012.8 hPa | 0 mm | - | - | - |
| 1777660693 | 13.33° C | 55% | 1012.7 hPa | 0 mm | - | - | - |
| 1777653904 | 16.11° C | 47% | 1013.1 hPa | 0 mm | - | - | - |
| 1777651333 | 17.22° C | 45% | 1013.3 hPa | 0 mm | - | - | - |
| 1777650843 | 17.78° C | 44% | 1013.4 hPa | 0 mm | - | - | - |
| 1777647243 | 18.33° C | 42% | 1013.8 hPa | 0 mm | - | - | - |
* Rain latest hour (hover to see other rain measurements)
** Current wind speed in m/s (hover to see current wind gust speed)